sensor_id;sensor_type;location;lat;lon;timestamp;pressure;altitude;pressure_sealevel;temperature;humidity
10638;BME280;47007;49.252;8.904;2022-12-18T00:00:26;101097.06;;;-9.03;100.00
10638;BME280;47007;49.252;8.904;2022-12-18T00:01:35;101086.66;;;-8.97;100.00
10638;BME280;47007;49.252;8.904;2022-12-18T00:02:17;101087.53;;;-8.97;100.00
10638;BME280;47007;49.252;8.904;2022-12-18T00:02:59;101090.94;;;-8.96;100.00
10638;BME280;47007;49.252;8.904;2022-12-18T00:03:41;101078.09;;;-8.96;100.00
10638;BME280;47007;49.252;8.904;2022-12-18T00:04:25;101079.84;;;-8.98;100.00
10638;BME280;47007;49.252;8.904;2022-12-18T00:05:07;101078.97;;;-8.97;100.00
10638;BME280;47007;49.252;8.904;2022-12-18T00:05:50;101058.69;;;-9.11;100.00
10638;BME280;47007;49.252;8.904;2022-12-18T00:06:32;101066.19;;;-9.02;100.00
10638;BME280;47007;49.252;8.904;2022-12-18T00:07:14;101082.31;;;-8.94;100.00
10638;BME280;47007;49.252;8.904;2022-12-18T00:07:55;101085.78;;;-8.96;100.00
10638;BME280;47007;49.252;8.904;2022-12-18T00:08:37;101074.88;;;-9.08;100.00
10638;BME280;47007;49.252;8.904;2022-12-18T00:09:20;101080.75;;;-9.01;100.00
10638;BME280;47007;49.252;8.904;2022-12-18T00:10:05;101011.44;;;-9.47;100.00
10638;BME280;47007;49.252;8.904;2022-12-18T00:10:47;101047.16;;;-9.35;100.00
10638;BME280;47007;49.252;8.904;2022-12-18T00:11:30;101080.03;;;-9.08;100.00
10638;BME280;47007;49.252;8.904;2022-12-18T00:12:12;101085.16;;;-9.08;100.00
10638;BME280;47007;49.252;8.904;2022-12-18T00:12:56;101084.34;;;-9.11;100.00
10638;BME280;47007;49.252;8.904;2022-12-18T00:13:38;101077.44;;;-9.08;100.00
10638;BME280;47007;49.252;8.904;2022-12-18T00:14:20;101080.09;;;-9.12;100.00
10638;BME280;47007;49.252;8.904;2022-12-18T00:15:01;101087.13;;;-9.22;100.00
10638;BME280;47007;49.252;8.904;2022-12-18T00:15:43;101078.25;;;-9.52;100.00
10638;BME280;47007;49.252;8.904;2022-12-18T00:16:26;101080.28;;;-9.23;100.00
10638;BME280;47007;49.252;8.904;2022-12-18T00:17:08;101086.22;;;-9.19;100.00
10638;BME280;47007;49.252;8.904;2022-12-18T00:17:50;101099.03;;;-9.18;100.00
10638;BME280;47007;49.252;8.904;2022-12-18T00:18:32;101074.31;;;-9.23;100.00
10638;BME280;47007;49.252;8.904;2022-12-18T00:19:14;101075.94;;;-9.18;100.00
10638;BME280;47007;49.252;8.904;2022-12-18T00:19:56;101048.91;;;-9.38;100.00
10638;BME280;47007;49.252;8.904;2022-12-18T00:20:39;101085.34;;;-9.17;100.00
10638;BME280;47007;49.252;8.904;2022-12-18T00:21:21;101083.56;;;-9.15;100.00
10638;BME280;47007;49.252;8.904;2022-12-18T00:22:03;101069.22;;;-9.25;100.00
10638;BME280;47007;49.252;8.904;2022-12-18T00:22:45;101086.97;;;-9.14;100.00
10638;BME280;47007;49.252;8.904;2022-12-18T00:23:27;101085.34;;;-9.17;100.00
10638;BME280;47007;49.252;8.904;2022-12-18T00:24:09;101094.59;;;-9.08;100.00
10638;BME280;47007;49.252;8.904;2022-12-18T00:24:51;101028.59;;;-9.49;100.00
10638;BME280;47007;49.252;8.904;2022-12-18T00:25:34;101040.31;;;-9.36;100.00
10638;BME280;47007;49.252;8.904;2022-12-18T00:26:27;101096.19;;;-9.02;100.00
10638;BME280;47007;49.252;8.904;2022-12-18T00:27:12;101058.03;;;-9.22;100.00
10638;BME280;47007;49.252;8.904;2022-12-18T00:27:54;101093.53;;;-8.98;100.00
10638;BME280;47007;49.252;8.904;2022-12-18T00:28:36;101089.28;;;-9.00;100.00
10638;BME280;47007;49.252;8.904;2022-12-18T00:29:18;101093.50;;;-8.96;100.00
10638;BME280;47007;49.252;8.904;2022-12-18T00:30:00;101090.13;;;-9.00;100.00
10638;BME280;47007;49.252;8.904;2022-12-18T00:30:42;101104.59;;;-8.94;100.00
10638;BME280;47007;49.252;8.904;2022-12-18T00:31:24;101088.50;;;-9.02;100.00
10638;BME280;47007;49.252;8.904;2022-12-18T00:32:07;101071.50;;;-9.10;100.00
10638;BME280;47007;49.252;8.904;2022-12-18T00:32:48;101106.25;;;-8.90;100.00
10638;BME280;47007;49.252;8.904;2022-12-18T00:33:31;101102.81;;;-8.91;100.00
10638;BME280;47007;49.252;8.904;2022-12-18T00:34:13;101101.97;;;-8.91;100.00
10638;BME280;47007;49.252;8.904;2022-12-18T00:34:57;101094.31;;;-8.94;100.00
10638;BME280;47007;49.252;8.904;2022-12-18T00:35:38;101089.28;;;-9.00;100.00
10638;BME280;47007;49.252;8.904;2022-12-18T00:36:23;101094.31;;;-8.94;100.00
10638;BME280;47007;49.252;8.904;2022-12-18T00:37:06;101095.16;;;-8.94;100.00
10638;BME280;47007;49.252;8.904;2022-12-18T00:37:47;101086.00;;;-9.07;100.00
10638;BME280;47007;49.252;8.904;2022-12-18T00:38:29;101101.22;;;-8.96;100.00
10638;BME280;47007;49.252;8.904;2022-12-18T00:39:11;101062.31;;;-9.21;100.00
10638;BME280;47007;49.252;8.904;2022-12-18T00:39:53;101107.19;;;-8.96;100.00
10638;BME280;47007;49.252;8.904;2022-12-18T00:40:35;101075.81;;;-9.12;100.00
10638;BME280;47007;49.252;8.904;2022-12-18T00:41:17;101096.06;;;-8.96;100.00
10638;BME280;47007;49.252;8.904;2022-12-18T00:42:19;101066.66;;;-9.26;100.00
10638;BME280;47007;49.252;8.904;2022-12-18T00:43:20;101108.13;;;-9.01;100.00
10638;BME280;47007;49.252;8.904;2022-12-18T00:44:02;101020.13;;;-9.53;100.00
10638;BME280;47007;49.252;8.904;2022-12-18T00:44:44;101086.06;;;-9.12;100.00
10638;BME280;47007;49.252;8.904;2022-12-18T00:45:30;101100.50;;;-9.03;100.00
10638;BME280;47007;49.252;8.904;2022-12-18T00:46:12;101114.19;;;-9.02;100.00
10638;BME280;47007;49.252;8.904;2022-12-18T00:46:54;101093.00;;;-9.15;100.00
10638;BME280;47007;49.252;8.904;2022-12-18T00:47:35;101103.06;;;-9.03;100.00
10638;BME280;47007;49.252;8.904;2022-12-18T00:48:17;101105.75;;;-9.11;100.00
10638;BME280;47007;49.252;8.904;2022-12-18T00:48:59;101101.38;;;-9.05;100.00
10638;BME280;47007;49.252;8.904;2022-12-18T00:49:41;101093.78;;;-9.12;100.00
10638;BME280;47007;49.252;8.904;2022-12-18T00:50:24;101105.72;;;-9.09;100.00
10638;BME280;47007;49.252;8.904;2022-12-18T00:51:05;101108.34;;;-9.12;100.00
10638;BME280;47007;49.252;8.904;2022-12-18T00:51:48;101088.69;;;-9.15;100.00
10638;BME280;47007;49.252;8.904;2022-12-18T00:52:30;101090.25;;;-9.04;100.00
10638;BME280;47007;49.252;8.904;2022-12-18T00:53:12;101112.47;;;-9.03;100.00
10638;BME280;47007;49.252;8.904;2022-12-18T00:53:53;101095.38;;;-9.04;100.00
10638;BME280;47007;49.252;8.904;2022-12-18T00:54:35;101074.13;;;-9.13;100.00
10638;BME280;47007;49.252;8.904;2022-12-18T00:55:17;101098.72;;;-9.01;100.00
10638;BME280;47007;49.252;8.904;2022-12-18T00:56:01;101099.50;;;-8.97;100.00
10638;BME280;47007;49.252;8.904;2022-12-18T00:56:42;101065.47;;;-9.07;100.00
10638;BME280;47007;49.252;8.904;2022-12-18T00:57:31;101069.69;;;-9.04;100.00
10638;BME280;47007;49.252;8.904;2022-12-18T00:58:14;101062.88;;;-9.05;100.00
10638;BME280;47007;49.252;8.904;2022-12-18T00:58:56;101099.31;;;-8.87;100.00
10638;BME280;47007;49.252;8.904;2022-12-18T00:59:38;101093.44;;;-8.92;100.00
10638;BME280;47007;49.252;8.904;2022-12-18T01:00:20;101098.44;;;-8.87;100.00
10638;BME280;47007;49.252;8.904;2022-12-18T01:01:04;101079.97;;;-9.04;100.00
10638;BME280;47007;49.252;8.904;2022-12-18T01:01:48;101101.22;;;-8.98;100.00
10638;BME280;47007;49.252;8.904;2022-12-18T01:02:30;101091.94;;;-9.03;100.00
10638;BME280;47007;49.252;8.904;2022-12-18T01:03:13;101098.63;;;-8.96;100.00
10638;BME280;47007;49.252;8.904;2022-12-18T01:03:59;101098.59;;;-8.93;100.00
10638;BME280;47007;49.252;8.904;2022-12-18T01:04:41;101119.13;;;-8.93;100.00
10638;BME280;47007;49.252;8.904;2022-12-18T01:05:23;101101.19;;;-8.95;100.00
10638;BME280;47007;49.252;8.904;2022-12-18T01:06:06;101064.03;;;-9.23;100.00
10638;BME280;47007;49.252;8.904;2022-12-18T01:06:48;101098.72;;;-9.01;100.00
10638;BME280;47007;49.252;8.904;2022-12-18T01:07:30;101075.94;;;-9.18;100.00
10638;BME280;47007;49.252;8.904;2022-12-18T01:08:12;101090.41;;;-9.14;100.00
10638;BME280;47007;49.252;8.904;2022-12-18T01:08:56;101119.47;;;-9.12;100.00
10638;BME280;47007;49.252;8.904;2022-12-18T01:09:37;101102.44;;;-9.16;100.00
10638;BME280;47007;49.252;8.904;2022-12-18T01:10:19;101112.75;;;-9.19;100.00
10638;BME280;47007;49.252;8.904;2022-12-18T01:11:14;101098.31;;;-9.26;100.00
10638;BME280;47007;49.252;8.904;2022-12-18T01:11:56;101104.22;;;-9.21;100.00
10638;BME280;47007;49.252;8.904;2022-12-18T01:12:38;101074.56;;;-9.37;100.00
10638;BME280;47007;49.252;8.904;2022-12-18T01:13:20;101076.28;;;-9.37;100.00
10638;BME280;47007;49.252;8.904;2022-12-18T01:14:04;101117.84;;;-9.16;100.00
10638;BME280;47007;49.252;8.904;2022-12-18T01:14:46;101025.50;;;-9.66;100.00
10638;BME280;47007;49.252;8.904;2022-12-18T01:15:28;101084.69;;;-9.28;100.00
10638;BME280;47007;49.252;8.904;2022-12-18T01:16:14;101093.25;;;-9.27;100.00
10638;BME280;47007;49.252;8.904;2022-12-18T01:16:56;101100.97;;;-9.29;100.00
10638;BME280;47007;49.252;8.904;2022-12-18T01:17:38;101089.00;;;-9.30;100.00
10638;BME280;47007;49.252;8.904;2022-12-18T01:18:19;101110.22;;;-9.22;100.00
10638;BME280;47007;49.252;8.904;2022-12-18T01:19:01;101095.94;;;-9.36;100.00
10638;BME280;47007;49.252;8.904;2022-12-18T01:19:42;101112.00;;;-9.25;100.00
10638;BME280;47007;49.252;8.904;2022-12-18T01:20:24;101091.53;;;-9.28;100.00
10638;BME280;47007;49.252;8.904;2022-12-18T01:21:07;101112.81;;;-9.23;100.00
10638;BME280;47007;49.252;8.904;2022-12-18T01:21:51;101100.00;;;-9.25;100.00
10638;BME280;47007;49.252;8.904;2022-12-18T01:22:32;101038.03;;;-9.51;100.00
10638;BME280;47007;49.252;8.904;2022-12-18T01:23:14;101105.78;;;-9.14;100.00
10638;BME280;47007;49.252;8.904;2022-12-18T01:23:58;101098.16;;;-9.15;100.00
10638;BME280;47007;49.252;8.904;2022-12-18T01:24:40;101106.56;;;-9.07;100.00
10638;BME280;47007;49.252;8.904;2022-12-18T01:25:21;101102.34;;;-9.11;100.00
10638;BME280;47007;49.252;8.904;2022-12-18T01:26:13;101111.50;;;-8.98;100.00
10638;BME280;47007;49.252;8.904;2022-12-18T01:26:55;101075.13;;;-9.20;100.00
10638;BME280;47007;49.252;8.904;2022-12-18T01:27:38;101102.22;;;-9.03;100.00
10638;BME280;47007;49.252;8.904;2022-12-18T01:28:20;101093.84;;;-9.15;100.00
10638;BME280;47007;49.252;8.904;2022-12-18T01:29:01;101107.28;;;-9.00;100.00
10638;BME280;47007;49.252;8.904;2022-12-18T01:29:43;101102.97;;;-9.00;100.00
10638;BME280;47007;49.252;8.904;2022-12-18T01:30:25;101125.94;;;-8.91;100.00
10638;BME280;47007;49.252;8.904;2022-12-18T01:31:33;101118.97;;;-8.86;100.00
10638;BME280;47007;49.252;8.904;2022-12-18T01:32:16;101040.22;;;-9.30;100.00
10638;BME280;47007;49.252;8.904;2022-12-18T01:32:58;101091.69;;;-8.91;100.00
10638;BME280;47007;49.252;8.904;2022-12-18T01:33:39;101079.88;;;-9.01;100.00
10638;BME280;47007;49.252;8.904;2022-12-18T01:34:23;101096.72;;;-8.85;100.00
10638;BME280;47007;49.252;8.904;2022-12-18T01:35:05;101091.50;;;-8.82;100.00
10638;BME280;47007;49.252;8.904;2022-12-18T01:35:48;101085.47;;;-8.80;100.00
10638;BME280;47007;49.252;8.904;2022-12-18T01:36:32;101108.47;;;-8.74;100.00
10638;BME280;47007;49.252;8.904;2022-12-18T01:37:14;101106.66;;;-8.68;100.00
10638;BME280;47007;49.252;8.904;2022-12-18T01:37:59;101083.13;;;-8.90;100.00
10638;BME280;47007;49.252;8.904;2022-12-18T01:38:42;101115.28;;;-8.71;100.00
10638;BME280;47007;49.252;8.904;2022-12-18T01:39:23;101062.66;;;-8.95;100.00
10638;BME280;47007;49.252;8.904;2022-12-18T01:40:06;101070.34;;;-8.95;100.00
10638;BME280;47007;49.252;8.904;2022-12-18T01:40:47;101102.53;;;-8.77;100.00
10638;BME280;47007;49.252;8.904;2022-12-18T01:41:30;101099.16;;;-8.79;100.00
10638;BME280;47007;49.252;8.904;2022-12-18T01:42:32;101088.34;;;-8.95;100.00
10638;BME280;47007;49.252;8.904;2022-12-18T01:43:17;101100.03;;;-8.80;100.00
10638;BME280;47007;49.252;8.904;2022-12-18T01:44:00;101097.50;;;-8.82;100.00
10638;BME280;47007;49.252;8.904;2022-12-18T01:45:46;101094.13;;;-8.85;100.00
10638;BME280;47007;49.252;8.904;2022-12-18T01:46:28;101112.09;;;-8.84;100.00
10638;BME280;47007;49.252;8.904;2022-12-18T01:47:15;101087.56;;;-9.00;100.00
10638;BME280;47007;49.252;8.904;2022-12-18T01:48:06;101090.25;;;-9.04;100.00
10638;BME280;47007;49.252;8.904;2022-12-18T01:48:53;101116.53;;;-8.92;100.00
10638;BME280;47007;49.252;8.904;2022-12-18T01:49:38;101093.69;;;-9.05;100.00
10638;BME280;47007;49.252;8.904;2022-12-18T01:51:12;101039.50;;;-9.38;100.00
10638;BME280;47007;49.252;8.904;2022-12-18T01:51:54;101108.84;;;-8.92;100.00
10638;BME280;47007;49.252;8.904;2022-12-18T01:52:40;101116.56;;;-8.93;100.00
10638;BME280;47007;49.252;8.904;2022-12-18T01:53:23;101102.88;;;-8.94;100.00
10638;BME280;47007;49.252;8.904;2022-12-18T01:54:05;101104.72;;;-9.02;100.00
10638;BME280;47007;49.252;8.904;2022-12-18T01:54:48;101110.59;;;-8.95;100.00
10638;BME280;47007;49.252;8.904;2022-12-18T01:55:44;100997.16;;;-9.60;100.00
10638;BME280;47007;49.252;8.904;2022-12-18T01:56:29;101091.16;;;-9.07;100.00
10638;BME280;47007;49.252;8.904;2022-12-18T01:57:11;101114.00;;;-8.93;100.00
10638;BME280;47007;49.252;8.904;2022-12-18T01:57:55;101074.97;;;-9.14;100.00
10638;BME280;47007;49.252;8.904;2022-12-18T01:58:48;101119.19;;;-8.96;100.00
10638;BME280;47007;49.252;8.904;2022-12-18T01:59:33;101122.63;;;-8.97;100.00
10638;BME280;47007;49.252;8.904;2022-12-18T02:00:18;101115.78;;;-8.98;100.00
10638;BME280;47007;49.252;8.904;2022-12-18T02:01:01;101115.06;;;-9.05;100.00
10638;BME280;47007;49.252;8.904;2022-12-18T02:01:42;101110.84;;;-9.08;100.00
10638;BME280;47007;49.252;8.904;2022-12-18T02:02:26;101115.91;;;-9.03;100.00
10638;BME280;47007;49.252;8.904;2022-12-18T02:03:09;101109.09;;;-9.05;100.00
10638;BME280;47007;49.252;8.904;2022-12-18T02:03:51;101099.69;;;-9.07;100.00
10638;BME280;47007;49.252;8.904;2022-12-18T02:04:33;101106.56;;;-9.07;100.00
10638;BME280;47007;49.252;8.904;2022-12-18T02:05:19;101092.91;;;-9.11;100.00
10638;BME280;47007;49.252;8.904;2022-12-18T02:09:10;101104.91;;;-9.11;100.00
10638;BME280;47007;49.252;8.904;2022-12-18T02:09:57;101104.94;;;-9.13;100.00
10638;BME280;47007;49.252;8.904;2022-12-18T02:10:48;101079.50;;;-9.26;100.00
10638;BME280;47007;49.252;8.904;2022-12-18T02:12:58;101040.31;;;-9.36;100.00
10638;BME280;47007;49.252;8.904;2022-12-18T02:18:02;101115.69;;;-8.92;100.00
10638;BME280;47007;49.252;8.904;2022-12-18T02:18:53;101112.34;;;-8.97;100.00
10638;BME280;47007;49.252;8.904;2022-12-18T02:19:39;101106.41;;;-9.01;100.00
10638;BME280;47007;49.252;8.904;2022-12-18T02:20:30;101120.94;;;-8.98;100.00
10638;BME280;47007;49.252;8.904;2022-12-18T02:21:31;101052.22;;;-9.30;100.00
10638;BME280;47007;49.252;8.904;2022-12-18T02:22:25;101098.63;;;-8.96;100.00
10638;BME280;47007;49.252;8.904;2022-12-18T02:23:45;101082.69;;;-9.14;100.00
10638;BME280;47007;49.252;8.904;2022-12-18T02:24:41;101113.13;;;-8.92;100.00
10638;BME280;47007;49.252;8.904;2022-12-18T02:26:04;101111.28;;;-8.86;100.00
10638;BME280;47007;49.252;8.904;2022-12-18T02:26:53;101109.69;;;-8.91;100.00
10638;BME280;47007;49.252;8.904;2022-12-18T02:27:41;101089.22;;;-8.96;100.00
10638;BME280;47007;49.252;8.904;2022-12-18T02:28:33;101109.38;;;-8.76;100.00
10638;BME280;47007;49.252;8.904;2022-12-18T02:29:26;101101.78;;;-8.82;100.00
10638;BME280;47007;49.252;8.904;2022-12-18T02:30:11;101091.69;;;-8.91;100.00
10638;BME280;47007;49.252;8.904;2022-12-18T02:30:56;101105.25;;;-8.85;100.00
10638;BME280;47007;49.252;8.904;2022-12-18T02:31:43;101111.00;;;-8.72;100.00
10638;BME280;47007;49.252;8.904;2022-12-18T02:32:29;101116.31;;;-8.80;100.00
10638;BME280;47007;49.252;8.904;2022-12-18T02:33:13;101104.31;;;-8.79;100.00
10638;BME280;47007;49.252;8.904;2022-12-18T02:34:00;101116.94;;;-8.68;100.00
10638;BME280;47007;49.252;8.904;2022-12-18T02:34:50;101094.13;;;-8.85;100.00
10638;BME280;47007;49.252;8.904;2022-12-18T02:35:33;101111.03;;;-8.74;100.00
10638;BME280;47007;49.252;8.904;2022-12-18T02:36:17;101106.06;;;-8.81;100.00
10638;BME280;47007;49.252;8.904;2022-12-18T02:37:04;101116.22;;;-8.77;100.00
10638;BME280;47007;49.252;8.904;2022-12-18T02:37:48;101115.47;;;-8.80;100.00
10638;BME280;47007;49.252;8.904;2022-12-18T02:38:31;101111.28;;;-8.87;100.00
10638;BME280;47007;49.252;8.904;2022-12-18T02:39:21;101107.97;;;-8.91;100.00
10638;BME280;47007;49.252;8.904;2022-12-18T02:40:14;101139.50;;;-8.84;100.00
10638;BME280;47007;49.252;8.904;2022-12-18T02:40:57;101081.72;;;-9.07;100.00
10638;BME280;47007;49.252;8.904;2022-12-18T02:41:41;101127.59;;;-8.88;100.00
10638;BME280;47007;49.252;8.904;2022-12-18T02:42:23;101046.41;;;-9.40;100.00
10638;BME280;47007;49.252;8.904;2022-12-18T02:43:11;101124.22;;;-8.90;100.00
10638;BME280;47007;49.252;8.904;2022-12-18T02:43:58;101108.94;;;-8.98;100.00
10638;BME280;47007;49.252;8.904;2022-12-18T02:44:49;101110.63;;;-8.97;100.00
10638;BME280;47007;49.252;8.904;2022-12-18T02:45:34;101072.69;;;-9.27;100.00
10638;BME280;47007;49.252;8.904;2022-12-18T02:46:30;101108.50;;;-9.20;100.00
10638;BME280;47007;49.252;8.904;2022-12-18T02:47:16;101101.50;;;-9.12;100.00
10638;BME280;47007;49.252;8.904;2022-12-18T02:48:02;101083.56;;;-9.15;100.00
10638;BME280;47007;49.252;8.904;2022-12-18T02:48:46;101038.72;;;-9.41;100.00
10638;BME280;47007;49.252;8.904;2022-12-18T02:49:36;101116.47;;;-8.89;100.00
10638;BME280;47007;49.252;8.904;2022-12-18T02:50:35;101099.50;;;-8.97;100.00
10638;BME280;47007;49.252;8.904;2022-12-18T02:51:33;101088.38;;;-8.98;100.00
10638;BME280;47007;49.252;8.904;2022-12-18T02:53:28;101102.78;;;-8.89;100.00
10638;BME280;47007;49.252;8.904;2022-12-18T02:56:38;101079.16;;;-9.08;100.00
10638;BME280;47007;49.252;8.904;2022-12-18T02:57:35;101113.78;;;-8.83;100.00
10638;BME280;47007;49.252;8.904;2022-12-18T02:58:55;101106.94;;;-8.82;100.00
10638;BME280;47007;49.252;8.904;2022-12-18T03:00:03;101091.84;;;-8.99;100.00
10638;BME280;47007;49.252;8.904;2022-12-18T03:01:10;101115.63;;;-8.89;100.00
10638;BME280;47007;49.252;8.904;2022-12-18T03:02:23;101124.25;;;-8.92;100.00
10638;BME280;47007;49.252;8.904;2022-12-18T03:03:14;101099.53;;;-8.99;100.00
10638;BME280;47007;49.252;8.904;2022-12-18T03:04:03;101101.19;;;-8.95;100.00
10638;BME280;47007;49.252;8.904;2022-12-18T03:05:14;101106.13;;;-8.86;100.00
10638;BME280;47007;49.252;8.904;2022-12-18T03:06:08;101107.75;;;-8.80;100.00
10638;BME280;47007;49.252;8.904;2022-12-18T03:07:05;101105.09;;;-8.77;100.00
10638;BME280;47007;49.252;8.904;2022-12-18T03:08:57;101074.56;;;-8.91;100.00
10638;BME280;47007;49.252;8.904;2022-12-18T03:09:44;101114.41;;;-8.70;100.00
10638;BME280;47007;49.252;8.904;2022-12-18T03:10:31;101092.16;;;-8.73;100.00
10638;BME280;47007;49.252;8.904;2022-12-18T03:11:14;101073.50;;;-8.81;100.00
10638;BME280;47007;49.252;8.904;2022-12-18T03:12:05;101063.28;;;-8.84;100.00
10638;BME280;47007;49.252;8.904;2022-12-18T03:13:34;101061.78;;;-8.94;100.00
10638;BME280;47007;49.252;8.904;2022-12-18T03:14:20;100996.63;;;-9.33;100.00
10638;BME280;47007;49.252;8.904;2022-12-18T03:15:14;101067.84;;;-8.98;100.00
10638;BME280;47007;49.252;8.904;2022-12-18T03:16:00;101092.50;;;-8.89;100.00
10638;BME280;47007;49.252;8.904;2022-12-18T03:16:44;101086.66;;;-8.97;100.00
10638;BME280;47007;49.252;8.904;2022-12-18T03:17:31;101105.25;;;-8.85;100.00
10638;BME280;47007;49.252;8.904;2022-12-18T03:18:17;101057.09;;;-9.17;100.00
10638;BME280;47007;49.252;8.904;2022-12-18T03:19:22;101105.50;;;-8.97;100.00
10638;BME280;47007;49.252;8.904;2022-12-18T03:20:10;101112.47;;;-9.03;100.00
10638;BME280;47007;49.252;8.904;2022-12-18T03:20:57;101092.25;;;-9.22;100.00
10638;BME280;47007;49.252;8.904;2022-12-18T03:21:43;101105.94;;;-9.20;100.00
10638;BME280;47007;49.252;8.904;2022-12-18T03:22:32;101074.50;;;-9.34;100.00
10638;BME280;47007;49.252;8.904;2022-12-18T03:23:21;101087.28;;;-9.29;100.00
10638;BME280;47007;49.252;8.904;2022-12-18T03:24:07;101122.16;;;-9.18;100.00
10638;BME280;47007;49.252;8.904;2022-12-18T03:24:51;101068.59;;;-9.39;100.00
10638;BME280;47007;49.252;8.904;2022-12-18T03:25:37;101107.63;;;-9.19;100.00
10638;BME280;47007;49.252;8.904;2022-12-18T03:26:24;101124.72;;;-9.18;100.00
10638;BME280;47007;49.252;8.904;2022-12-18T03:27:14;101057.00;;;-9.60;100.00
10638;BME280;47007;49.252;8.904;2022-12-18T03:28:00;101085.47;;;-9.26;100.00
10638;BME280;47007;49.252;8.904;2022-12-18T03:28:49;101105.84;;;-9.15;100.00
10638;BME280;47007;49.252;8.904;2022-12-18T03:30:41;101061.69;;;-9.34;100.00
10638;BME280;47007;49.252;8.904;2022-12-18T03:31:27;101116.78;;;-9.04;100.00
10638;BME280;47007;49.252;8.904;2022-12-18T03:32:17;101112.41;;;-9.00;100.00
10638;BME280;47007;49.252;8.904;2022-12-18T03:33:54;101098.78;;;-9.02;100.00
10638;BME280;47007;49.252;8.904;2022-12-18T03:34:50;101104.50;;;-8.90;100.00
10638;BME280;47007;49.252;8.904;2022-12-18T03:35:39;101084.88;;;-8.92;100.00
10638;BME280;47007;49.252;8.904;2022-12-18T03:36:22;101081.56;;;-8.99;100.00
10638;BME280;47007;49.252;8.904;2022-12-18T03:37:06;101114.44;;;-8.73;100.00
10638;BME280;47007;49.252;8.904;2022-12-18T03:37:49;101113.56;;;-8.72;100.00
10638;BME280;47007;49.252;8.904;2022-12-18T03:38:32;101108.38;;;-8.69;100.00
10638;BME280;47007;49.252;8.904;2022-12-18T03:39:14;101116.91;;;-8.67;100.00
10638;BME280;47007;49.252;8.904;2022-12-18T03:40:01;101078.72;;;-8.85;100.00
10638;BME280;47007;49.252;8.904;2022-12-18T03:42:10;101101.38;;;-8.62;100.00
10638;BME280;47007;49.252;8.904;2022-12-18T03:43:12;101090.41;;;-8.71;100.00
10638;BME280;47007;49.252;8.904;2022-12-18T03:46:19;101033.22;;;-8.79;100.00
10638;BME280;47007;49.252;8.904;2022-12-18T03:47:06;101102.59;;;-8.39;100.00
10638;BME280;47007;49.252;8.904;2022-12-18T03:48:13;101096.50;;;-8.35;100.00
10638;BME280;47007;49.252;8.904;2022-12-18T03:49:06;101098.28;;;-8.38;100.00
10638;BME280;47007;49.252;8.904;2022-12-18T03:50:53;101055.91;;;-8.59;100.00
10638;BME280;47007;49.252;8.904;2022-12-18T03:52:23;101126.16;;;-8.20;100.00
10638;BME280;47007;49.252;8.904;2022-12-18T03:53:19;101109.25;;;-8.30;100.00
10638;BME280;47007;49.252;8.904;2022-12-18T03:54:06;101147.66;;;-8.22;100.00
10638;BME280;47007;49.252;8.904;2022-12-18T03:54:55;101103.25;;;-8.30;100.00
10638;BME280;47007;49.252;8.904;2022-12-18T03:55:39;101123.63;;;-8.21;100.00
10638;BME280;47007;49.252;8.904;2022-12-18T03:56:25;101104.97;;;-8.29;100.00
10638;BME280;47007;49.252;8.904;2022-12-18T03:57:19;101081.19;;;-8.39;100.00
10638;BME280;47007;49.252;8.904;2022-12-18T03:58:07;101115.00;;;-8.19;100.00
10638;BME280;47007;49.252;8.904;2022-12-18T03:59:04;101100.44;;;-8.20;100.00
10638;BME280;47007;49.252;8.904;2022-12-18T03:59:51;101117.41;;;-8.11;100.00
10638;BME280;47007;49.252;8.904;2022-12-18T04:00:39;101109.69;;;-8.11;100.00
10638;BME280;47007;49.252;8.904;2022-12-18T04:01:30;101096.97;;;-8.17;100.00
10638;BME280;47007;49.252;8.904;2022-12-18T04:02:16;101114.78;;;-8.10;100.00
10638;BME280;47007;49.252;8.904;2022-12-18T04:03:00;101111.47;;;-8.15;100.00
10638;BME280;47007;49.252;8.904;2022-12-18T04:03:49;101114.72;;;-8.07;100.00
10638;BME280;47007;49.252;8.904;2022-12-18T04:04:35;101100.41;;;-8.18;100.00
10638;BME280;47007;49.252;8.904;2022-12-18T04:05:20;101113.94;;;-8.10;100.00
10638;BME280;47007;49.252;8.904;2022-12-18T04:06:05;101110.50;;;-8.09;100.00
10638;BME280;47007;49.252;8.904;2022-12-18T04:06:49;101113.72;;;-8.01;100.00
10638;BME280;47007;49.252;8.904;2022-12-18T04:07:33;101107.00;;;-8.05;100.00
10638;BME280;47007;49.252;8.904;2022-12-18T04:08:15;101109.31;;;-7.94;100.00
10638;BME280;47007;49.252;8.904;2022-12-18T04:09:04;101125.25;;;-7.79;100.00
10638;BME280;47007;49.252;8.904;2022-12-18T04:09:55;101130.28;;;-7.74;100.00
10638;BME280;47007;49.252;8.904;2022-12-18T04:10:38;101124.25;;;-7.73;100.00
10638;BME280;47007;49.252;8.904;2022-12-18T04:11:19;101119.06;;;-7.72;100.00
10638;BME280;47007;49.252;8.904;2022-12-18T04:12:02;101098.75;;;-7.84;100.00
10638;BME280;47007;49.252;8.904;2022-12-18T04:12:44;101058.09;;;-8.05;100.00
10638;BME280;47007;49.252;8.904;2022-12-18T04:13:29;101125.03;;;-7.70;100.00
10638;BME280;47007;49.252;8.904;2022-12-18T04:14:15;101098.72;;;-7.82;100.00
10638;BME280;47007;49.252;8.904;2022-12-18T04:15:01;101124.19;;;-7.70;100.00
10638;BME280;47007;49.252;8.904;2022-12-18T04:15:43;101137.94;;;-7.71;100.00
10638;BME280;47007;49.252;8.904;2022-12-18T04:16:28;101087.81;;;-7.92;100.00
10638;BME280;47007;49.252;8.904;2022-12-18T04:17:14;101077.03;;;-8.08;100.00
10638;BME280;47007;49.252;8.904;2022-12-18T04:17:56;101132.72;;;-7.68;100.00
10638;BME280;47007;49.252;8.904;2022-12-18T04:18:40;101123.41;;;-7.74;100.00
10638;BME280;47007;49.252;8.904;2022-12-18T04:19:22;101126.63;;;-7.66;100.00
10638;BME280;47007;49.252;8.904;2022-12-18T04:20:06;101133.44;;;-7.63;100.00
10638;BME280;47007;49.252;8.904;2022-12-18T04:20:49;101110.63;;;-7.78;100.00
10638;BME280;47007;49.252;8.904;2022-12-18T04:21:31;101040.38;;;-8.17;100.00